Thunder radar more information blitzortung!


Radar de pluja more information rain snow radar


Visita la nostra xarxa de llocs de meteo:

Template documentation
and downloads

And another site



No particular awareness of the weather is required.    There are no Weather-warnings

Pagina Historial Weather Underground text

Diari Resum May 15, 2017 Unitats:  Mètric    Imperial   Tant
« Previous Dia
SegĂźent Dia »
Diari Setmana Mensual Anual Personalitzada
  Maxima: Minima: Media:
Temperatura: -17.8 °C -9.9 °C -5.6 °C
Punt de rosada: -17.8 °C -12.8 °C -11.8 °C
Humitat: Humidity % 35 % 50 %
Wind Speed: 0 km/h 0 km/h 9.3 km/h
RĂ fegues de vent: 0 km/h - -
Vent:- - SSE
Pression baro: 0 hPa 34703.1 hPa -
Precipitacions: 0 mm    
Historical Graphs
 
 
Dades de taula per May 15, 2017
Temps Temperatura Punt de rosada Pression baro Vent Wind Speed RĂ fegues de vent Humitat Rainfall Rate (Hourly)
-17.8 °C -17.8 °C 0 hPa Calm     Humidity % 0 mm
00:04 -8.3 °C -12.2 °C 34740.4 hPa Calm     63 % 0 mm
00:05 -9.9 °C -12.6 °C 34740.4 hPa WSW 2.6 km/h 5.1 km/h 73 % 0 mm
00:15 -9.9 °C -12.4 °C 34740.4 hPa Calm     74 % 0 mm
00:25 -9.9 °C -12.6 °C 34774.2 hPa Calm   2.6 km/h 73 % 0 mm
00:35 -9.9 °C -12.4 °C 34774.2 hPa Calm     74 % 0 mm
00:45 -9.9 °C -12.4 °C 34774.2 hPa Calm     74 % 0 mm
00:55 -9.8 °C -12.4 °C 34740.4 hPa Calm     74 % 0 mm
01:05 -9.8 °C -12.4 °C 34740.4 hPa Calm     74 % 0 mm
01:15 -9.9 °C -12.4 °C 34774.2 hPa WSW 2.6 km/h 5.1 km/h 74 % 0 mm
01:25 -9.9 °C -12.4 °C 34774.2 hPa Calm   2.6 km/h 74 % 0 mm
01:35 -9.9 °C -12.4 °C 34774.2 hPa Calm     74 % 0 mm
01:45 -9.8 °C -12.4 °C 34774.2 hPa Calm     74 % 0 mm
01:55 -9.9 °C -12.4 °C 34774.2 hPa North 5.1 km/h 5.1 km/h 74 % 0 mm
02:05 -9.8 °C -12.4 °C 34774.2 hPa Calm   5.1 km/h 74 % 0 mm
02:15 -9.8 °C -12.5 °C 34774.2 hPa East 5.1 km/h 5.1 km/h 73 % 0 mm
02:25 -9.9 °C -12.6 °C 34774.2 hPa SW 5.1 km/h 7.7 km/h 73 % 0 mm
02:35 -9.8 °C -12.4 °C 34774.2 hPa SW 5.1 km/h 7.7 km/h 73 % 0 mm
02:45 -9.6 °C -12.2 °C 34808.1 hPa SW 2.6 km/h 5.1 km/h 74 % 0 mm
02:55 -9.3 °C -11.9 °C 34808.1 hPa Calm   5.1 km/h 74 % 0 mm
03:05 -8.8 °C -11.5 °C 34808.1 hPa Calm   5.1 km/h 73 % 0 mm
03:15 -8.7 °C -11.6 °C 34808.1 hPa SSW 5.1 km/h 7.7 km/h 71 % 0 mm
03:25 -8.8 °C -11.8 °C 34808.1 hPa SW 2.6 km/h 5.1 km/h 70 % 0 mm
03:35 -8.7 °C -11.8 °C 34808.1 hPa SW 2.6 km/h 5.1 km/h 70 % 0 mm
03:45 -8 °C -11.2 °C 34808.1 hPa SSW 2.6 km/h 2.6 km/h 69 % 0 mm
03:55 -7.7 °C -11.1 °C 34808.1 hPa South 2.6 km/h 7.7 km/h 68 % 0 mm
04:05 -7.2 °C -10.9 °C 34808.1 hPa ESE 2.6 km/h 7.7 km/h 65 % 0 mm
04:15 -7.3 °C -11 °C 34808.1 hPa ENE 5.1 km/h 10.3 km/h 65 % 0 mm
04:25 -7 °C -11 °C 34808.1 hPa NE 7.7 km/h 7.7 km/h 63 % 0 mm
04:35 -6.9 °C -10.9 °C 34808.1 hPa NE 5.1 km/h 7.7 km/h 63 % 0 mm
04:45 -6.7 °C -11 °C 34808.1 hPa NE 2.6 km/h 10.3 km/h 61 % 0 mm
04:55 -6.6 °C -11.2 °C 34808.1 hPa NNE 7.7 km/h 12.9 km/h 59 % 0 mm
05:05 -6.2 °C -10.8 °C 34808.1 hPa NNE 2.6 km/h 15.6 km/h 59 % 0 mm
05:15 -5.8 °C -10.6 °C 34808.1 hPa NE 5.1 km/h 7.7 km/h 58 % 0 mm
05:25 -5.6 °C -10.7 °C 34808.1 hPa NE 5.1 km/h 10.3 km/h 56 % 0 mm
05:35 -5.3 °C -10.4 °C 34808.1 hPa ENE 5.1 km/h 7.7 km/h 56 % 0 mm
05:45 -5.3 °C -10.6 °C 34808.1 hPa ENE 2.6 km/h 7.7 km/h 55 % 0 mm
10:54 -4.8 °C -10.4 °C 34808.1 hPa ENE 9 km/h 9 km/h 53 % 0 mm
10:59 -4.8 °C -10.6 °C 34808.1 hPa NE 6 km/h 6.8 km/h 52 % 0 mm
11:04 -4.6 °C -10.4 °C 34808.1 hPa ESE 6.3 km/h 6.3 km/h 52 % 0 mm
11:09 -4.4 °C -10.4 °C 34808.1 hPa ESE 15 km/h 15 km/h 51 % 0 mm
11:14 -4.6 °C -10.7 °C 34808.1 hPa ENE 14.5 km/h 14.5 km/h 50 % 0 mm
11:19 -4.4 °C -10.7 °C 34808.1 hPa NNE 3.7 km/h   49 % 0 mm
11:24 -4.3 °C -10.6 °C 34808.1 hPa ESE 9 km/h 9 km/h 49 % 0 mm
11:29 -4.3 °C -10.8 °C 34808.1 hPa ENE 9 km/h 9 km/h 48 % 0 mm
11:34 -4.2 °C -10.7 °C 34808.1 hPa ENE 17.9 km/h 17.9 km/h 48 % 0 mm
11:39 -4.3 °C -10.8 °C 34808.1 hPa ESE 10.3 km/h 10.3 km/h 48 % 0 mm
11:44 -4.2 °C -10.9 °C 34808.1 hPa NNE 15 km/h 15 km/h 47 % 0 mm
11:49 -4.1 °C -10.8 °C 34808.1 hPa NNE 9 km/h 9 km/h 47 % 0 mm
11:54 -4.2 °C -11.1 °C 34808.1 hPa East 20.9 km/h 20.9 km/h 46 % 0 mm
11:59 -4.2 °C -10.9 °C 34808.1 hPa NNE 11.9 km/h 11.9 km/h 47 % 0 mm
12:04 -4.1 °C -10.8 °C 34808.1 hPa East 11.9 km/h 11.9 km/h 47 % 0 mm
12:09 -3.9 °C -10.8 °C 34841.9 hPa ENE 9 km/h   46 % 0 mm
12:14 -3.9 °C -11 °C 34841.9 hPa SE 15.6 km/h 15.6 km/h 45 % 0 mm
12:19 -3.9 °C -11 °C 34841.9 hPa ENE 7.6 km/h 7.6 km/h 45 % 0 mm
12:24 -3.8 °C -10.9 °C 34808.1 hPa NE 9 km/h 9 km/h 45 % 0 mm
12:29 -3.3 °C -10.4 °C 34808.1 hPa North 3.1 km/h   45 % 0 mm
12:34 -3.3 °C -10.6 °C 34808.1 hPa ESE 12.7 km/h 12.7 km/h 44 % 0 mm
12:35 -3.3 °C -10.7 °C 34808.1 hPa SW 11.9 km/h 11.9 km/h 44 % 0 mm
12:40 -3.5 °C -11 °C 34808.1 hPa ESE 11.9 km/h 11.9 km/h 43 % 0 mm
12:45 -3.7 °C -11.2 °C 34808.1 hPa NNW 11.9 km/h 11.9 km/h 43 % 0 mm
12:50 -3.4 °C -10.7 °C 34808.1 hPa SE 9 km/h 9 km/h 44 % 0 mm
12:55 -3.3 °C -10.9 °C 34808.1 hPa NE 15 km/h 15 km/h 43 % 0 mm
13:00 -3.4 °C -10.9 °C 34808.1 hPa ENE 11.9 km/h 11.9 km/h 43 % 0 mm
13:05 -3.6 °C -11.3 °C 34808.1 hPa NE 15 km/h 15 km/h 42 % 0 mm
13:10 -3.4 °C -11.2 °C 34774.2 hPa SW 12.7 km/h 12.7 km/h 42 % 0 mm
13:15 -3.1 °C -10.9 °C 34774.2 hPa East 3.1 km/h   42 % 0 mm
13:20 -3.1 °C -10.8 °C 34774.2 hPa South 15 km/h 15 km/h 42 % 0 mm
13:25 -3.3 °C -11 °C 34774.2 hPa ESE 16.1 km/h 16.1 km/h 42 % 0 mm
13:30 -3.3 °C -11.2 °C 34774.2 hPa ESE 20.9 km/h 20.9 km/h 41 % 0 mm
13:35 -3.4 °C -11.5 °C 34774.2 hPa SE 15 km/h 15 km/h 40 % 0 mm
13:40 -3.4 °C -11.5 °C 34774.2 hPa SSE 20.9 km/h 20.9 km/h 40 % 0 mm
13:45 -3.1 °C -11.2 °C 34774.2 hPa South 17.9 km/h 17.9 km/h 40 % 0 mm
13:50 -3.3 °C -11.2 °C 34774.2 hPa SE 26.9 km/h 26.9 km/h 41 % 0 mm
13:55 -3.5 °C -11.6 °C 34774.2 hPa East 19.6 km/h 19.6 km/h 40 % 0 mm
14:00 -3.4 °C -11.3 °C 34774.2 hPa SE 15.3 km/h 15.3 km/h 41 % 0 mm
14:05 -3.5 °C -11.6 °C 34774.2 hPa SSW 23.8 km/h 23.8 km/h 40 % 0 mm
14:10 -3.5 °C -11.6 °C 34774.2 hPa ENE 29.8 km/h 29.8 km/h 40 % 0 mm
14:15 -3.3 °C -11.4 °C 34774.2 hPa South 15 km/h 15 km/h 40 % 0 mm
14:20 -3.1 °C -11.1 °C 34774.2 hPa ESE 16.1 km/h 16.1 km/h 41 % 0 mm
14:25 -3.2 °C -11.3 °C 34774.2 hPa ENE 20.9 km/h 20.9 km/h 40 % 0 mm
14:30 -3.2 °C -11.3 °C 34774.2 hPa SE 17.9 km/h 17.9 km/h 40 % 0 mm
14:35 -3.2 °C -11.3 °C 34774.2 hPa ESE 33.6 km/h 33.6 km/h 40 % 0 mm
14:40 -3.3 °C -11.6 °C 34740.4 hPa ESE 29.8 km/h 29.8 km/h 39 % 0 mm
14:45 -3.1 °C -11.3 °C 34740.4 hPa NE 15 km/h 15 km/h 40 % 0 mm
14:50 -3.1 °C -11.5 °C 34740.4 hPa SE 17.9 km/h 17.9 km/h 39 % 0 mm
14:55 -3.3 °C -11.6 °C 34774.2 hPa SSW 29.8 km/h 29.8 km/h 39 % 0 mm
15:00 -3.1 °C -11.4 °C 34774.2 hPa South 20.9 km/h 20.9 km/h 39 % 0 mm
15:01 -3.1 °C -11.7 °C 34774.2 hPa ESE 20.9 km/h 20.9 km/h 38 % 0 mm
15:06 -3.2 °C -11.6 °C 34774.2 hPa SSE 23.8 km/h 23.8 km/h 39 % 0 mm
15:11 -3.2 °C -11.6 °C 34740.4 hPa SSE 23.8 km/h 23.8 km/h 39 % 0 mm
15:16 -3.4 °C -11.8 °C 34740.4 hPa SE 29.8 km/h 29.8 km/h 39 % 0 mm
15:21 -3.4 °C -11.8 °C 34740.4 hPa ESE 20.9 km/h 20.9 km/h 39 % 0 mm
15:26 -3.2 °C -11.8 °C 34740.4 hPa ESE 15 km/h 15 km/h 38 % 0 mm
15:31 -3.2 °C -11.6 °C 34740.4 hPa ESE 15 km/h 15 km/h 39 % 0 mm
15:36 -2.7 °C -11.3 °C 34740.4 hPa SSW 9 km/h 9 km/h 38 % 0 mm
15:41 -2.7 °C -11.6 °C 34740.4 hPa North 17.9 km/h 17.9 km/h 37 % 0 mm
15:46 -2.2 °C -10.9 °C 34740.4 hPa West 28.2 km/h 28.2 km/h 38 % 0 mm
15:51 -2.2 °C -11.3 °C 34740.4 hPa WSW 17.9 km/h 17.9 km/h 36 % 0 mm
15:56 -2.1 °C -11.1 °C 34740.4 hPa SSE 8.5 km/h 8.5 km/h 37 % 0 mm
16:01 -1.9 °C -10.9 °C 34740.4 hPa West 14 km/h 14 km/h 37 % 0 mm
16:06 -2.3 °C -11.5 °C 34740.4 hPa SW 17.9 km/h 17.9 km/h 36 % 0 mm
16:11 -2.3 °C -11.5 °C 34740.4 hPa SW 23.8 km/h 23.8 km/h 36 % 0 mm
16:16 -2.2 °C -11.3 °C 34740.4 hPa WSW 9 km/h 9 km/h 36 % 0 mm
16:21 -2.2 °C -11.3 °C 34740.4 hPa SW 20.9 km/h 20.9 km/h 36 % 0 mm
16:26 -2.4 °C -11.8 °C 34740.4 hPa WSW 17.9 km/h 17.9 km/h 35 % 0 mm
16:31 -2.2 °C -11.3 °C 34740.4 hPa NE 9 km/h 9 km/h 36 % 0 mm
16:36 -2.1 °C -11.3 °C 34740.4 hPa South 15 km/h 15 km/h 36 % 0 mm
16:41 -2.3 °C -11.5 °C 34740.4 hPa SW 20.9 km/h 20.9 km/h 36 % 0 mm
16:46 -2.7 °C -12 °C 34740.4 hPa WSW 17.9 km/h 17.9 km/h 35 % 0 mm
16:51 -2.6 °C -11.9 °C 34740.4 hPa South 26.9 km/h 26.9 km/h 35 % 0 mm
16:56 -2.7 °C -12.1 °C 34740.4 hPa WSW 20.9 km/h 20.9 km/h 35 % 0 mm
17:01 -2.8 °C -12.1 °C 34740.4 hPa SSW 23.8 km/h 23.8 km/h 35 % 0 mm
17:06 -2.7 °C -12 °C 34740.4 hPa WNW 15 km/h 15 km/h 35 % 0 mm
17:11 -2.6 °C -11.9 °C 34740.4 hPa SSW 16.6 km/h 16.6 km/h 35 % 0 mm
17:16 -2.7 °C -12.1 °C 34740.4 hPa West 15 km/h 15 km/h 35 % 0 mm
17:21 -2.8 °C -12.1 °C 34740.4 hPa West 14 km/h 14 km/h 35 % 0 mm
17:26 -2.7 °C -12.1 °C 34740.4 hPa West 33.6 km/h 33.6 km/h 35 % 0 mm
17:31 -3.1 °C -12.1 °C 34740.4 hPa WSW 20.9 km/h 20.9 km/h 36 % 0 mm
17:36 -3 °C -12.1 °C 34740.4 hPa WSW 26.9 km/h 26.9 km/h 36 % 0 mm
17:41 -3.2 °C -12.2 °C 34740.4 hPa South 20.9 km/h 20.9 km/h 36 % 0 mm
17:46 -3.1 °C -12.1 °C 34740.4 hPa WSW 16.1 km/h 16.1 km/h 36 % 0 mm
17:51 -3.2 °C -12.3 °C 34740.4 hPa SSW 20.9 km/h 20.9 km/h 36 % 0 mm
17:56 -3.3 °C -12.1 °C 34740.4 hPa WSW 20.9 km/h 20.9 km/h 37 % 0 mm
18:01 -3.4 °C -12.4 °C 34740.4 hPa SW 20.9 km/h 20.9 km/h 36 % 0 mm
18:06 -3.3 °C -12.1 °C 34740.4 hPa SSE 15 km/h 15 km/h 37 % 0 mm
18:11 -3.3 °C -12.1 °C 34740.4 hPa SSW 15 km/h 15 km/h 37 % 0 mm
18:16 -3.3 °C -12.1 °C 34740.4 hPa SW 23.8 km/h 23.8 km/h 37 % 0 mm
18:21 -3.6 °C -12.4 °C 34740.4 hPa SW 20.9 km/h 20.9 km/h 37 % 0 mm
18:26 -3.6 °C -12.3 °C 34740.4 hPa SW 20.9 km/h 20.9 km/h 37 % 0 mm
18:27 -3.6 °C -12.3 °C 34740.4 hPa SW 20.9 km/h 20.9 km/h 37 % 0 mm
18:32 -3.6 °C -12.1 °C 34740.4 hPa SSW 17.9 km/h 17.9 km/h 38 % 0 mm
18:37 -3.3 °C -11.9 °C 34740.4 hPa SSW 15 km/h 15 km/h 38 % 0 mm
18:42 -3.6 °C -12.1 °C 34740.4 hPa WSW 17.9 km/h 17.9 km/h 38 % 0 mm
18:47 -3.8 °C -12.3 °C 34740.4 hPa SW 17.9 km/h 17.9 km/h 38 % 0 mm
18:52 -3.8 °C -12.3 °C 34740.4 hPa SSW 19.6 km/h 19.6 km/h 38 % 0 mm
18:57 -3.9 °C -12.4 °C 34740.4 hPa SW 15.3 km/h 15.3 km/h 38 % 0 mm
19:02 -4 °C -12.3 °C 34740.4 hPa SW 15 km/h 15 km/h 39 % 0 mm
19:07 -4.1 °C -12.3 °C 34740.4 hPa WSW 15 km/h 15 km/h 39 % 0 mm
19:12 -3.9 °C -12.2 °C 34703.1 hPa SW 18.3 km/h 18.3 km/h 39 % 0 mm
19:17 -4.1 °C -12.4 °C 34703.1 hPa SW 11.9 km/h 11.9 km/h 39 % 0 mm
19:22 -4.2 °C -12.3 °C 34703.1 hPa WSW 6 km/h 6.3 km/h 40 % 0 mm
19:25 -7.7 °C -12.1 °C 34774.2 hPa Calm   5.1 km/h 60 % 0 mm
19:27 -4.3 °C -12.4 °C 34703.1 hPa SSW 15 km/h 15 km/h 40 % 0 mm
19:32 -4.3 °C -12.4 °C 34703.1 hPa WSW 3.1 km/h 3.1 km/h 40 % 0 mm
19:35 -7.8 °C -12.1 °C 34774.2 hPa Calm     61 % 0 mm
19:37 -4.4 °C -12.4 °C 34703.1 hPa SSE 9 km/h 9 km/h 40 % 0 mm
19:42 -4.5 °C -12.5 °C 34703.1 hPa SW 6.8 km/h 6.8 km/h 40 % 0 mm
19:45 -7.9 °C -12.1 °C 34774.2 hPa Calm     61 % 0 mm
19:47 -4.6 °C -12.4 °C 34703.1 hPa SW 6 km/h   41 % 0 mm
19:52 -4.7 °C -12.4 °C 34703.1 hPa West 6 km/h 6 km/h 41 % 0 mm
19:55 -8 °C -12.2 °C 34774.2 hPa Calm   2.6 km/h 61 % 0 mm
19:57 -4.7 °C -12.5 °C 34703.1 hPa SW 6 km/h 6 km/h 41 % 0 mm
19:58 -4.7 °C -12.5 °C 34703.1 hPa SSW 6 km/h 6 km/h 41 % 0 mm
20:03 -4.8 °C -12.6 °C 34703.1 hPa SW 6 km/h 6.3 km/h 41 % 0 mm
20:05 -8 °C -12.1 °C 34774.2 hPa Calm   2.6 km/h 62 % 0 mm
20:08 -4.8 °C -12.6 °C 34703.1 hPa WSW 8.5 km/h 8.5 km/h 41 % 0 mm
20:13 -4.9 °C -12.7 °C 34703.1 hPa SW 8.5 km/h 8.5 km/h 41 % 0 mm
20:15 -8.1 °C -12.2 °C 34774.2 hPa Calm     62 % 0 mm
20:18 -5 °C -12.7 °C 34703.1 hPa SW 9 km/h 9 km/h 41 % 0 mm
20:23 -5.1 °C -12.4 °C 34703.1 hPa SSW 6 km/h 6 km/h 43 % 0 mm
20:25 -8.2 °C -12.1 °C 34774.2 hPa Calm   2.6 km/h 63 % 0 mm
20:28 -5.2 °C -12.5 °C 34703.1 hPa WSW 3.1 km/h   43 % 0 mm
20:33 -5.2 °C -12.6 °C 34703.1 hPa WSW 3.7 km/h   43 % 0 mm
20:35 -8.2 °C -12.2 °C 34774.2 hPa NNE 2.6 km/h 5.1 km/h 63 % 0 mm
20:38 -5.3 °C -12.7 °C 34703.1 hPa SW 3.1 km/h 3.1 km/h 43 % 0 mm
20:43 -5.4 °C -12.6 °C 34740.4 hPa SW 3.1 km/h   44 % 0 mm
20:45 -8.3 °C -12.2 °C 34740.4 hPa Calm   2.6 km/h 63 % 0 mm
20:48 -5.6 °C -12.7 °C 34740.4 hPa Calm     44 % 0 mm
20:53 -5.6 °C -12.7 °C 34740.4 hPa SW 3.1 km/h   44 % 0 mm
20:55 -8.3 °C -12.1 °C 34740.4 hPa East 2.6 km/h 5.1 km/h 64 % 0 mm
20:58 -5.7 °C -12.7 °C 34740.4 hPa SW 3.1 km/h   45 % 0 mm
21:03 -5.8 °C -12.7 °C 34740.4 hPa SW 3.1 km/h 3.7 km/h 45 % 0 mm
21:05 -8.3 °C -12.2 °C 34740.4 hPa ENE 2.6 km/h 5.1 km/h 64 % 0 mm
21:08 -5.9 °C -12.6 °C 34740.4 hPa SW 3.1 km/h   46 % 0 mm
21:13 -6 °C -12.7 °C 34740.4 hPa WSW 6 km/h 6 km/h 46 % 0 mm
21:15 -8.4 °C -12.1 °C 34740.4 hPa Calm   2.6 km/h 65 % 0 mm
21:18 -6.1 °C -12.6 °C 34740.4 hPa East 4.2 km/h   47 % 0 mm
21:23 -6.1 °C -12.6 °C 34740.4 hPa ENE 3.1 km/h 3.1 km/h 47 % 0 mm
21:25 -8.5 °C -12.2 °C 34703.1 hPa Calm     65 % 0 mm
21:28 -6.2 °C -12.3 °C 34740.4 hPa Calm     49 % 0 mm
21:33 -6.3 °C -12.4 °C 34740.4 hPa NE 3.1 km/h 3.1 km/h 49 % 0 mm
21:35 -8.6 °C -12.1 °C 34703.1 hPa Calm     66 % 0 mm
21:38 -6.3 °C -12.3 °C 34740.4 hPa NE 4.2 km/h 4.2 km/h 50 % 0 mm
21:43 -6.4 °C -12.4 °C 34740.4 hPa NE 6 km/h 6 km/h 50 % 0 mm
21:45 -8.8 °C -12.4 °C 34740.4 hPa ENE 5.1 km/h 7.7 km/h 65 % 0 mm
21:48 -6.4 °C -12.4 °C 34740.4 hPa ENE 6 km/h 6 km/h 50 % 0 mm
21:53 -6.5 °C -12.3 °C 34703.1 hPa ENE 4.2 km/h 4.2 km/h 51 % 0 mm
21:55 -8.9 °C -12.3 °C 34740.4 hPa Calm   7.7 km/h 67 % 0 mm
21:58 -6.6 °C -12.4 °C 34703.1 hPa NE 3.1 km/h 3.1 km/h 51 % 0 mm
22:03 -6.6 °C -12.4 °C 34703.1 hPa NNE 6 km/h 6 km/h 51 % 0 mm
22:05 -9 °C -12.4 °C 34740.4 hPa SW 2.6 km/h 5.1 km/h 67 % 0 mm
22:08 -6.7 °C -12.3 °C 34740.4 hPa ENE 6 km/h 6 km/h 52 % 0 mm
22:13 -6.8 °C -12.3 °C 34740.4 hPa ENE 6 km/h 6 km/h 53 % 0 mm
22:15 -9.1 °C -12.5 °C 34740.4 hPa SW 5.1 km/h 5.1 km/h 67 % 0 mm
22:18 -6.8 °C -12.3 °C 34740.4 hPa NE 3.1 km/h 3.1 km/h 53 % 0 mm
22:23 -6.8 °C -12.3 °C 34740.4 hPa North 6 km/h 6 km/h 53 % 0 mm
22:25 -9.4 °C -12.8 °C 34740.4 hPa SW 5.1 km/h 7.7 km/h 67 % 0 mm
22:28 -6.9 °C -12.2 °C 34740.4 hPa NNE 6 km/h 6 km/h 54 % 0 mm
22:33 -6.9 °C -12.3 °C 34740.4 hPa Calm     54 % 0 mm
22:35 -9.3 °C -12.4 °C 34740.4 hPa Calm   7.7 km/h 69 % 0 mm
22:38 -7 °C -12.2 °C 34774.2 hPa Calm     55 % 0 mm
22:43 -7.1 °C -12.2 °C 34774.2 hPa Calm     55 % 0 mm
22:45 -9.2 °C -12.4 °C 34740.4 hPa Calm   5.1 km/h 69 % 0 mm
22:48 -7.1 °C -12.2 °C 34774.2 hPa Calm     55 % 0 mm
22:53 -7.1 °C -12.1 °C 34774.2 hPa NNE 6 km/h 6 km/h 56 % 0 mm
22:55 -9.1 °C -12.1 °C 34740.4 hPa WSW 2.6 km/h 2.6 km/h 70 % 0 mm
22:58 -7.1 °C -12.1 °C 34774.2 hPa NNW 3.1 km/h   56 % 0 mm
23:03 -7.2 °C -12 °C 34774.2 hPa Calm     57 % 0 mm
23:05 -9.1 °C -12.2 °C 34740.4 hPa Calm   2.6 km/h 69 % 0 mm
23:08 -7.2 °C -12.1 °C 34774.2 hPa Calm     57 % 0 mm
23:13 -7.3 °C -12 °C 34774.2 hPa Calm     58 % 0 mm
23:15 -9.1 °C -12.3 °C 34740.4 hPa North 2.6 km/h 5.1 km/h 69 % 0 mm
23:18 -7.3 °C -12.1 °C 34774.2 hPa Calm     58 % 0 mm
23:23 -7.3 °C -11.9 °C 34774.2 hPa Calm     59 % 0 mm
23:25 -9.2 °C -12.3 °C 34740.4 hPa Calm   2.6 km/h 70 % 0 mm
23:28 -7.4 °C -11.9 °C 34774.2 hPa Calm     59 % 0 mm
23:33 -7.4 °C -11.9 °C 34774.2 hPa Calm     59 % 0 mm
23:35 -9.3 °C -12.4 °C 34740.4 hPa SW 2.6 km/h 5.1 km/h 69 % 0 mm
23:38 -7.4 °C -12 °C 34774.2 hPa Calm     59 % 0 mm
23:43 -7.4 °C -12 °C 34774.2 hPa Calm     59 % 0 mm
23:45 -9.2 °C -12.4 °C 34740.4 hPa Calm   5.1 km/h 69 % 0 mm
23:48 -7.4 °C -12 °C 34774.2 hPa Calm     59 % 0 mm
23:53 -7.4 °C -12 °C 34740.4 hPa NNW 3.1 km/h   59 % 0 mm
23:55 -9.1 °C -12.3 °C 34740.4 hPa Calm   5.1 km/h 69 % 0 mm
23:58 -7.5 °C -11.9 °C 34740.4 hPa Calm     60 % 0 mm
Meteo Sesrovires
Elogis d' Weather Underground - 1.5 mb

Guio original per  Jim McMurry - jmcmurry@mwt.net Adaptat per a la plantilla per  Wim van der Kuil - Leuven-Template.eu

Trobareu la nostra informacio del temps tambe a:

Weather Underground

AWEKAS